Flight Track Log - Related Links

Times and Time Zones

All times are in EDT time to prevent confusion due to time zone crossing. See the UAL258 flight status page for this flight to view local times or setup timezone preferences in your user account.

Time Position Orientation Groundspeed Altitude Reporting Facility
EDT Latitude Longitude Course Direction KTS MPH feet Rate Location/Type
Fri 02:20:57 PM 36.0753 -115.1739 270° West 126 145 3,100  Level Los Angeles Center
Fri 02:22:04 PM 36.0617 -115.2608 259° West 238 274 5,400 1,828 Climbing Los Angeles Center
Fri 02:23:00 PM 35.8931 -115.3939 207° Southwest  Level FlightAware Approximate
Fri 02:23:05 PM 35.9906 -115.2919 199° South 289 333 7,000  Level Los Angeles Center
Fri 02:24:00 PM 35.8834 -115.5264 270° West  Level FlightAware Approximate
Fri 02:24:13 PM 35.9217 -115.3606 219° Southwest 299 344 11,100  Level Los Angeles Center
Fri 02:25:00 PM 35.8834 -115.6663 270° West  Level FlightAware Approximate
Fri 02:25:15 PM 35.8836 -115.4658 246° West 348 400 12,800  Level Los Angeles Center
Fri 02:26:00 PM 35.8834 -115.8062 270° West  Level FlightAware Approximate
Fri 02:26:17 PM 35.8903 -115.6125 273° West 397 457 16,400  Level Los Angeles Center
Fri 02:27:19 PM 35.8911 -115.7644 270° West 413 475 19,700 2,855 Climbing Los Angeles Center
Fri 02:28:21 PM 35.8956 -115.9100 272° West 425 489 22,300 2,274 Climbing Los Angeles Center
Fri 02:29:23 PM 35.9739 -116.0253 310° West 444 511 24,400 2,016 Climbing Los Angeles Center
Fri 02:30:26 PM 36.0697 -116.1422 315° West 451 519 26,500 1,488 Climbing Los Angeles Center
Fri 02:31:28 PM 36.1550 -116.2450 316° Northwest 459 528 27,500 968 Climbing Los Angeles Center
Fri 02:32:30 PM 36.2483 -116.3592 315° West 471 542 28,500 1,016 Climbing Los Angeles Center
Fri 02:33:32 PM 36.3617 -116.4969 316° Northwest 477 549 29,600 919 Climbing Los Angeles Center
Fri 02:34:34 PM 36.4569 -116.6128 316° Northwest 481 554 30,400 1,016 Climbing Los Angeles Center
Fri 02:35:36 PM 36.5636 -116.7414 316° Northwest 486 559 31,700 774 Climbing Los Angeles Center
Fri 02:36:38 PM 36.6761 -116.8317 327° Northwest 482 555 32,000 145 Climbing Los Angeles Center
Fri 02:37:40 PM 36.7781 -116.9083 329° Northwest 480 552 32,000  Level Los Angeles Center
Fri 02:38:42 PM 36.9047 -117.0047 329° Northwest 479 551 32,000  Level Los Angeles Center
Fri 02:39:44 PM 37.0183 -117.0925 328° Northwest 478 550 32,000  Level Los Angeles Center
Fri 02:40:32 PM 37.1092 -117.1631 328° Northwest 481 554 32,000  Level Oakland Center
Fri 02:41:34 PM 37.2239 -117.2528 328° Northwest 482 555 32,000  Level Oakland Center
Fri 02:42:35 PM 37.3497 -117.3767 322° Northwest 488 562 32,000  Level Oakland Center
Fri 02:43:37 PM 37.3864 -117.5311 287° West 468 539 32,000  Level Oakland Center
Fri 02:44:39 PM 37.4011 -117.6947 277° West 468 539 32,000  Level Oakland Center
Fri 02:45:41 PM 37.4142 -117.8578 276° West 467 537 32,000  Level Oakland Center
Fri 02:46:43 PM 37.4275 -118.0217 276° West 469 540 32,000  Level Oakland Center
Fri 02:47:45 PM 37.4414 -118.1878 276° West 474 545 32,000  Level Oakland Center
Fri 02:48:46 PM 37.4536 -118.3525 275° West 472 543 32,000  Level Oakland Center
Fri 02:49:48 PM 37.4667 -118.5175 276° West 473 544 32,000  Level Oakland Center
Fri 02:50:50 PM 37.4786 -118.6814 275° West 471 542 32,000 -48 Level Oakland Center
Fri 02:51:52 PM 37.4911 -118.8533 275° West 469 540 31,900 -48 Descending Oakland Center
Fri 02:52:54 PM 37.5033 -119.0161 275° West 470 541 31,900 48 Level Oakland Center
Fri 02:53:56 PM 37.5186 -119.2139 276° West 475 547 32,000 48 Climbing Oakland Center
Fri 02:54:58 PM 37.5292 -119.3767 275° West 471 542 32,000  Level Oakland Center
Fri 02:56:00 PM 37.5411 -119.5378 275° West 473 544 32,000  Level Oakland Center
Fri 02:57:02 PM 37.5514 -119.7028 275° West 473 544 32,000  Level Oakland Center
Fri 02:58:04 PM 37.5617 -119.8661 275° West 470 541 32,000  Level Oakland Center
Fri 02:59:05 PM 37.5747 -120.0636 275° West 471 542 32,000 -49 Level Oakland Center
Fri 03:00:07 PM 37.5861 -120.2269 275° West 469 540 31,900 -484 Descending Oakland Center
Fri 03:01:09 PM 37.5956 -120.3906 274° West 468 539 31,000 -1,548 Descending Oakland Center
Fri 03:02:11 PM 37.6044 -120.5558 274° West 470 541 28,700 -2,226 Descending Oakland Center
Fri 03:03:13 PM 37.6131 -120.7150 274° West 456 525 26,400 -2,905 Descending Oakland Center
Fri 03:04:17 PM 37.6167 -120.8833 272° West 403 464 22,600 -3,290 Descending Northern Cal TRACON
Fri 03:05:17 PM 37.6167 -121.0167 270° West 391 450 19,600 -2,800 Descending Northern Cal TRACON
Fri 03:06:17 PM 37.6000 -121.1500 261° West 386 444 17,000 -2,650 Descending Northern Cal TRACON
Fri 03:07:17 PM 37.5833 -121.2667 260° West 376 433 14,300 -2,380 Descending Northern Cal TRACON
Fri 03:08:18 PM 37.5833 -121.4000 270° West 359 413 12,200 -1,537 Descending Northern Cal TRACON
Fri 03:09:18 PM 37.5667 -121.5167 260° West 328 377 11,200 -600 Descending Northern Cal TRACON
Fri 03:10:18 PM 37.5500 -121.6167 258° West 314 361 11,000 -500 Descending Northern Cal TRACON
Fri 03:11:18 PM 37.5167 -121.7167 247° West 284 327 10,200 -1,100 Descending Northern Cal TRACON
Fri 03:12:18 PM 37.5000 -121.8000 256° West 246 283 8,800 -1,250 Descending Northern Cal TRACON
Fri 03:13:18 PM 37.4833 -121.8833 256° West 258 297 7,700 -1,100 Descending Northern Cal TRACON
Fri 03:14:18 PM 37.5000 -121.9667 284° West 249 287 6,600 -1,400 Descending Northern Cal TRACON
Fri 03:15:18 PM 37.5167 -122.0500 284° West 241 277 4,900 -1,700 Descending Northern Cal TRACON

Login

Don't have an account? Register now (free) for customized features, flight alerts, and more!